Latest Weather Observations for Frankston

IDV60801

Issued at 5:02 am EDT Monday 5 December 2016 (issued every 30 minutes, with the page automatically refreshed every 10 minutes)

About weather observations | Map of weather stations | Latest weather observations for VIC | Other Formats
Station Details ID: 086371 Name: FRANKSTON AWS Lat: -38.15 Lon: 145.12 Height: 6.0 m
Data from the previous 72 hours. | See also: Recent months at Frankston
Date/Time
EDT
Temp
°C
App
Temp
°C
Dew
Point
°C
Rel
Hum
%
Delta-T
°C
Wind Press
QNH
hPa
Press
MSL
hPa
Rain since
9am
mm
Dir  Spd
km/h
Gust
km/h
Spd
kts
Gust
kts
05/05:00am 19.1 15.1 15.2 78 2.3 NW 30 41 16 22 - - -
05/04:30am 21.1 19.8 16.7 76 2.7 NNW 19 24 10 13 - - -
05/04:00am 21.1 20.0 16.3 74 2.9 NNW 17 26 9 14 - - -
05/03:30am 21.3 19.9 16.5 74 2.9 N 19 22 10 12 - - -
05/03:00am 21.4 19.5 16.6 74 2.9 N 22 28 12 15 - - -
05/02:30am 21.9 18.7 16.4 71 3.3 N 28 35 15 19 - - -
05/02:28am 21.9 18.8 16.6 72 3.2 N 28 35 15 19 - - -
05/02:00am 20.9 21.2 16.9 78 2.4 NNW 11 17 6 9 - - -
05/01:30am 21.2 21.0 16.8 76 2.7 N 13 17 7 9 - - -
05/01:00am 21.4 21.2 16.8 75 2.8 N 13 17 7 9 - - -
05/12:30am 21.5 20.8 17.3 77 2.6 N 17 20 9 11 - - -
05/12:00am 21.1 21.0 16.9 77 2.6 N 13 17 7 9 - - -
 
Date/Time
EDT
Temp
°C
App
Temp
°C
Dew
Point
°C
Rel
Hum
%
Delta-T
°C
Wind Press
QNH
hPa
Press
MSL
hPa
Rain since
9am
mm
Dir  Spd
km/h
Gust
km/h
Spd
kts
Gust
kts
04/11:30pm 20.5 20.4 16.9 80 2.2 N 13 17 7 9 - - -
04/11:00pm 21.4 21.3 17.0 76 2.7 NNE 13 20 7 11 - - -
04/10:30pm 21.0 21.5 17.4 80 2.2 NNE 11 17 6 9 - - -
04/10:00pm 20.6 20.6 17.2 81 2.1 NNE 13 20 7 11 - - -
04/09:30pm 20.9 21.6 17.1 79 2.3 NE 9 17 5 9 - - -
04/09:00pm 21.3 21.1 17.5 79 2.3 NNE 15 22 8 12 - - -
04/08:30pm 20.4 21.3 17.6 84 1.7 NNE 9 11 5 6 - - -
04/08:00pm 20.2 21.0 16.4 79 2.3 N 7 9 4 5 - - -
04/07:30pm 20.4 21.3 16.0 76 2.6 NNE 6 6 3 3 - - -
04/07:00pm 21.5 19.8 15.8 70 3.4 WNW 19 22 10 12 - - -
04/06:30pm 23.0 18.1 15.3 62 4.6 WNW 35 46 19 25 - - -
04/06:11pm 27.2 23.6 13.2 42 8.2 NNW 24 46 13 25 - - -
04/06:00pm 26.8 25.3 13.2 43 8.0 N 13 19 7 10 - - -
04/05:30pm 30.1 28.0 9.6 28 11.5 N 11 32 6 17 - - -
04/05:00pm 30.3 30.1 9.2 27 11.8 CALM 0 0 0 0 - - -
04/04:30pm 29.4 28.9 9.5 29 11.1 NNE 2 6 1 3 - - -
04/04:00pm 26.6 25.5 13.0 43 7.9 NNE 11 15 6 8 - - -
04/03:30pm 24.2 22.9 14.9 56 5.5 NNE 15 20 8 11 - - -
04/03:00pm 23.8 22.4 14.5 56 5.5 N 15 19 8 10 - - -
04/02:30pm 24.3 23.9 14.1 53 6.0 NNE 9 15 5 8 - - -
04/02:00pm 26.2 25.4 11.2 39 8.5 N 6 9 3 5 - - -
04/01:30pm 26.0 26.2 11.7 41 8.2 NW 2 6 1 3 - - -
04/01:00pm 25.8 25.2 10.4 38 8.6 NW 4 13 2 7 - - -
04/12:30pm 26.2 25.2 10.4 37 8.8 N 6 9 3 5 - - -
04/12:00pm 27.0 26.0 11.1 37 9.0 ENE 7 13 4 7 - - -
04/11:30am 22.8 23.5 12.1 51 6.1 CALM 0 0 0 0 - - -
04/11:00am 21.8 22.6 13.7 60 4.7 SW 2 6 1 3 - - -
04/10:30am 23.7 22.8 9.3 40 7.8 ENE 4 11 2 6 - - -
04/10:00am 22.3 21.7 10.5 47 6.5 E 4 7 2 4 - - -
04/09:30am 19.9 19.0 11.4 58 4.7 E 7 11 4 6 - - -
04/09:00am 17.9 17.1 11.7 67 3.4 E 7 13 4 7 - - -
04/08:30am 16.0 14.8 11.6 75 2.4 E 9 13 5 7 - - -
04/08:00am 15.4 14.8 11.8 79 1.9 ESE 6 11 3 6 - - -
04/07:30am 14.4 13.8 11.6 83 1.5 ESE 6 9 3 5 - - -
04/07:00am 13.2 12.2 11.1 87 1.1 ESE 7 11 4 6 - - -
04/06:30am 12.5 11.4 10.6 88 1.0 ESE 7 11 4 6 - - -
04/06:00am 12.2 11.0 10.3 88 1.0 ESE 7 11 4 6 - - -
04/05:30am 11.9 10.2 10.0 88 1.0 ESE 9 13 5 7 - - -
04/05:00am 11.9 10.2 9.8 87 1.1 ESE 9 11 5 6 - - -
04/04:30am 12.1 10.0 9.8 86 1.2 ESE 11 15 6 8 - - -
04/04:00am 12.5 10.5 10.0 85 1.3 ESE 11 17 6 9 - - -
04/03:30am 12.9 10.9 10.1 83 1.4 ESE 11 19 6 10 - - -
04/03:00am 13.2 11.2 10.2 82 1.6 ESE 11 19 6 10 - - -
04/02:30am 13.3 10.9 10.1 81 1.7 ESE 13 28 7 15 - - -
04/02:00am 13.4 11.0 10.0 80 1.8 ESE 13 20 7 11 - - -
04/01:30am 13.7 11.3 10.1 79 1.9 E 13 22 7 12 - - -
04/01:00am 14.0 11.6 10.2 78 2.0 ESE 13 20 7 11 - - -
04/12:30am 14.5 12.2 10.5 77 2.1 ESE 13 20 7 11 - - -
04/12:00am 14.9 12.7 10.7 76 2.2 ESE 13 22 7 12 - - -
 
Date/Time
EDT
Temp
°C
App
Temp
°C
Dew
Point
°C
Rel
Hum
%
Delta-T
°C
Wind Press
QNH
hPa
Press
MSL
hPa
Rain since
9am
mm
Dir  Spd
km/h
Gust
km/h
Spd
kts
Gust
kts
03/11:30pm 15.2 13.8 11.0 76 2.2 ESE 9 19 5 10 - - -
03/11:00pm 15.2 13.8 10.8 75 2.3 SE 9 15 5 8 - - -
03/10:30pm 15.2 14.0 10.4 73 2.5 SE 7 17 4 9 - - -
03/10:00pm 15.4 13.4 10.2 71 2.7 SE 11 19 6 10 - - -
03/09:30pm 15.9 13.9 10.0 68 3.1 SE 11 20 6 11 - - -
03/09:00pm 16.6 15.0 10.2 66 3.4 ESE 9 17 5 9 - - -
03/08:30pm 17.3 15.3 10.2 63 3.8 SE 11 20 6 11 - - -
03/08:00pm 17.7 14.5 10.1 61 4.0 SE 17 28 9 15 - - -
03/07:30pm 18.1 15.2 9.7 58 4.4 SE 15 26 8 14 - - -
03/07:00pm 18.6 15.3 9.7 56 4.7 SE 17 30 9 16 - - -
03/06:30pm 18.7 15.3 9.2 54 5.0 SSE 17 30 9 16 - - -
03/06:00pm 19.5 16.0 8.8 50 5.6 SE 17 28 9 15 - - -
03/05:30pm 19.8 16.3 8.8 49 5.8 SE 17 28 9 15 - - -
03/05:00pm 20.2 16.8 9.2 49 5.8 SSE 17 32 9 17 - - -
03/04:30pm 21.8 19.7 9.7 46 6.5 SE 11 22 6 12 - - -
03/04:00pm 21.0 19.1 7.6 42 6.9 E 7 17 4 9 - - -
03/03:30pm 17.2 13.2 10.3 64 3.7 WSW 22 26 12 14 - - -
03/03:00pm 16.8 12.3 10.2 65 3.5 WSW 24 26 13 14 - - -
03/02:30pm 16.4 12.2 9.6 64 3.5 WSW 22 26 12 14 - - -
03/02:00pm 16.1 12.4 10.0 67 3.2 WSW 20 24 11 13 - - -
03/01:30pm 15.6 11.6 9.1 65 3.3 WSW 20 22 11 12 - - -
03/01:00pm 15.6 12.2 9.3 66 3.2 W 17 19 9 10 - - -
03/12:30pm 15.4 12.4 9.3 67 3.1 WSW 15 19 8 10 - - -
03/12:00pm 15.0 12.2 8.7 66 3.2 W 13 15 7 8 - - -
03/11:30am 15.0 12.2 8.5 65 3.3 W 13 17 7 9 - - -
03/11:00am 17.0 15.1 6.5 50 5.2 SSW 6 11 3 6 - - -
03/10:30am 16.3 14.5 7.3 55 4.5 S 6 13 3 7 - - -
03/10:00am 16.5 15.1 7.2 54 4.6 ENE 4 11 2 6 - - -
03/09:30am 15.4 13.5 6.7 56 4.2 ESE 6 9 3 5 - - -
03/09:00am 14.9 12.5 7.0 59 3.9 E 9 15 5 8 - - -
03/08:30am 15.4 13.9 8.4 63 3.5 ESE 6 11 3 6 - - -
03/08:00am 14.1 12.5 7.9 66 3.1 ESE 6 9 3 5 - - -
03/07:30am 13.5 12.6 7.9 69 2.8 SE 2 6 1 3 - - -
03/07:00am 12.2 11.6 7.5 73 2.3 CALM 0 2 0 1 - - -
03/06:30am 10.5 8.6 6.5 76 1.9 SE 6 7 3 4 - - -
03/06:00am 10.1 8.1 6.1 76 1.9 SE 6 7 3 4 - - -
03/05:30am 10.0 7.9 6.0 76 1.8 SE 6 7 3 4 - - -
03/05:00am 10.3 8.3 6.3 76 1.9 SE 6 7 3 4 - - -
03/04:30am 10.2 8.2 6.4 77 1.8 SE 6 7 3 4 - - -
03/04:00am 10.8 8.9 6.7 76 1.9 SE 6 7 3 4 - - -
03/03:30am 10.7 8.7 6.3 74 2.1 SE 6 7 3 4 - - -
03/03:00am 11.3 9.4 6.6 73 2.2 SSE 6 7 3 4 - - -
03/02:30am 11.8 9.4 6.9 72 2.3 SSE 9 9 5 5 - - -
03/02:00am 11.3 9.1 6.2 71 2.4 SSE 7 9 4 5 - - -
03/01:30am 12.4 10.4 6.9 69 2.6 SSE 7 9 4 5 - - -
03/01:00am 11.6 9.6 6.3 70 2.5 SSE 6 7 3 4 - - -
03/12:30am 12.1 10.1 6.2 67 2.8 SSE 6 7 3 4 - - -
03/12:00am 12.1 10.1 6.2 67 2.8 SSE 6 6 3 3 - - -
 
Date/Time
EDT
Temp
°C
App
Temp
°C
Dew
Point
°C
Rel
Hum
%
Delta-T
°C
Wind Press
QNH
hPa
Press
MSL
hPa
Rain since
9am
mm
Dir  Spd
km/h
Gust
km/h
Spd
kts
Gust
kts
02/11:30pm 12.5 10.8 5.9 64 3.1 S 4 6 2 3 - - -
02/11:00pm 12.5 11.2 5.9 64 3.1 S 2 6 1 3 - - -
02/10:30pm 12.9 11.3 6.5 65 3.1 SE 4 4 2 2 - - -
02/10:00pm 13.4 11.8 6.3 62 3.4 SSW 4 6 2 3 - - -
02/09:30pm 13.7 12.5 6.3 61 3.5 SSE 2 6 1 3 - - -
02/09:00pm 14.0 12.4 6.4 60 3.6 SSE 4 9 2 5 - - -
02/08:30pm 14.5 12.4 6.6 59 3.8 S 7 13 4 7 - - -
02/08:00pm 15.1 12.6 6.7 57 4.1 S 9 15 5 8 - - -
02/07:30pm 16.2 13.8 6.9 54 4.6 S 9 19 5 10 - - -
02/07:00pm 16.5 14.0 8.0 57 4.3 SSE 11 20 6 11 - - -
02/06:30pm 17.5 15.0 8.4 55 4.7 SE 11 22 6 12 - - -
02/06:00pm 17.9 15.5 8.7 55 4.8 SSE 11 20 6 11 - - -
02/05:30pm 17.9 15.1 8.5 54 4.8 S 13 22 7 12 - - -
02/05:00pm 16.9 11.7 10.3 65 3.5 WSW 28 32 15 17 - - -
02/04:30pm 16.4 10.5 10.3 67 3.2 WSW 32 35 17 19 - - -
02/04:00pm 16.6 11.0 10.0 65 3.5 WSW 30 33 16 18 - - -
02/03:30pm 16.6 11.3 11.1 70 3.0 WSW 30 33 16 18 - - -
02/03:00pm 16.1 11.6 11.5 74 2.5 WSW 26 30 14 16 - - -
02/02:30pm 16.2 12.1 11.6 74 2.5 WSW 24 28 13 15 - - -
02/02:00pm 16.1 12.9 11.1 72 2.7 WSW 19 20 10 11 - - -
02/01:30pm 16.2 13.3 10.9 71 2.8 WSW 17 20 9 11 - - -
02/01:00pm 16.4 15.1 10.0 66 3.4 WSW 7 11 4 6 - - -
02/12:30pm 16.3 15.0 9.9 66 3.4 NW 7 9 4 5 - - -
02/12:00pm 15.9 14.1 9.6 66 3.3 NW 9 11 5 6 - - -
02/11:30am 15.7 13.6 9.8 68 3.1 NW 11 13 6 7 - - -
02/11:00am 15.5 13.4 9.8 69 3.0 WNW 11 13 6 7 - - -
02/10:30am 15.4 13.1 10.4 72 2.6 WNW 13 15 7 8 - - -
02/10:00am 15.3 12.8 9.7 69 2.9 W 13 17 7 9 - - -
02/09:30am 15.2 12.4 10.0 71 2.7 W 15 19 8 10 - - -
02/09:00am 15.0 11.4 10.0 72 2.6 W 19 22 10 12 - - -
02/08:30am 15.2 10.8 10.4 73 2.5 W 24 26 13 14 - - -
02/08:00am 15.2 11.1 10.0 71 2.7 W 22 26 12 14 - - -
02/07:30am 15.5 11.9 10.7 73 2.5 W 20 26 11 14 - - -
02/07:00am 15.2 11.9 10.8 75 2.3 W 19 22 10 12 - - -
02/06:30am 15.1 11.6 10.9 76 2.2 W 20 24 11 13 - - -
02/06:00am 15.0 11.9 11.6 80 1.8 WSW 19 22 10 12 - - -
02/05:30am 15.2 13.0 12.2 82 1.6 WSW 15 19 8 10 - - -

Other Formats:

Comma delimited format used in spreadsheet applications
http://www.bom.gov.au/fwo/IDV60801/IDV60801.94871.axf

JavaScript Object Notation format (JSON) in row-major order
http://www.bom.gov.au/fwo/IDV60801/IDV60801.94871.json